sensor_id;sensor_type;location;lat;lon;timestamp;P1;durP1;ratioP1;P2;durP2;ratioP2
5900;SDS011;2976;49.764;9.796;2023-01-26T00:00:46;41.10;;;18.10;;
5900;SDS011;2976;49.764;9.796;2023-01-26T00:03:12;39.30;;;17.70;;
5900;SDS011;2976;49.764;9.796;2023-01-26T00:05:38;38.40;;;16.40;;
5900;SDS011;2976;49.764;9.796;2023-01-26T00:08:04;33.70;;;16.60;;
5900;SDS011;2976;49.764;9.796;2023-01-26T00:10:29;28.40;;;14.60;;
5900;SDS011;2976;49.764;9.796;2023-01-26T00:12:55;32.90;;;14.47;;
5900;SDS011;2976;49.764;9.796;2023-01-26T00:15:21;33.40;;;16.00;;
5900;SDS011;2976;49.764;9.796;2023-01-26T00:17:46;36.37;;;15.83;;
5900;SDS011;2976;49.764;9.796;2023-01-26T00:20:12;37.20;;;16.20;;
5900;SDS011;2976;49.764;9.796;2023-01-26T00:22:37;35.07;;;16.50;;
5900;SDS011;2976;49.764;9.796;2023-01-26T00:25:03;32.53;;;15.00;;
5900;SDS011;2976;49.764;9.796;2023-01-26T00:27:31;33.17;;;15.77;;
5900;SDS011;2976;49.764;9.796;2023-01-26T00:29:57;32.17;;;14.87;;
5900;SDS011;2976;49.764;9.796;2023-01-26T00:32:22;33.87;;;14.30;;
5900;SDS011;2976;49.764;9.796;2023-01-26T00:34:47;33.20;;;14.30;;
5900;SDS011;2976;49.764;9.796;2023-01-26T00:37:13;31.53;;;15.67;;
5900;SDS011;2976;49.764;9.796;2023-01-26T00:39:38;29.17;;;13.80;;
5900;SDS011;2976;49.764;9.796;2023-01-26T00:42:04;28.80;;;13.30;;
5900;SDS011;2976;49.764;9.796;2023-01-26T00:44:37;28.05;;;14.25;;
5900;SDS011;2976;49.764;9.796;2023-01-26T00:47:04;31.27;;;14.63;;
5900;SDS011;2976;49.764;9.796;2023-01-26T00:49:31;33.23;;;14.63;;
5900;SDS011;2976;49.764;9.796;2023-01-26T00:51:57;32.87;;;15.40;;
5900;SDS011;2976;49.764;9.796;2023-01-26T00:54:22;37.87;;;16.40;;
5900;SDS011;2976;49.764;9.796;2023-01-26T00:56:48;37.27;;;15.63;;
5900;SDS011;2976;49.764;9.796;2023-01-26T00:59:13;29.87;;;15.10;;
5900;SDS011;2976;49.764;9.796;2023-01-26T01:01:39;29.90;;;13.40;;
5900;SDS011;2976;49.764;9.796;2023-01-26T01:04:11;32.77;;;14.90;;
5900;SDS011;2976;49.764;9.796;2023-01-26T01:06:37;34.13;;;14.97;;
5900;SDS011;2976;49.764;9.796;2023-01-26T01:09:02;32.00;;;14.97;;
5900;SDS011;2976;49.764;9.796;2023-01-26T01:11:28;29.23;;;14.13;;
5900;SDS011;2976;49.764;9.796;2023-01-26T01:13:53;23.70;;;13.23;;
5900;SDS011;2976;49.764;9.796;2023-01-26T01:16:19;32.53;;;14.53;;
5900;SDS011;2976;49.764;9.796;2023-01-26T01:18:44;35.57;;;13.00;;
5900;SDS011;2976;49.764;9.796;2023-01-26T01:21:11;34.53;;;14.93;;
5900;SDS011;2976;49.764;9.796;2023-01-26T01:23:39;36.65;;;14.85;;
5900;SDS011;2976;49.764;9.796;2023-01-26T01:26:05;29.63;;;14.30;;
5900;SDS011;2976;49.764;9.796;2023-01-26T01:28:33;34.30;;;15.17;;
5900;SDS011;2976;49.764;9.796;2023-01-26T01:31:06;32.63;;;15.13;;
5900;SDS011;2976;49.764;9.796;2023-01-26T01:33:33;33.67;;;15.83;;
5900;SDS011;2976;49.764;9.796;2023-01-26T01:36:00;35.53;;;14.70;;
5900;SDS011;2976;49.764;9.796;2023-01-26T01:38:28;38.42;;;16.67;;
5900;SDS011;2976;49.764;9.796;2023-01-26T01:40:54;41.88;;;16.98;;
5900;SDS011;2976;49.764;9.796;2023-01-26T01:43:20;37.43;;;15.47;;
5900;SDS011;2976;49.764;9.796;2023-01-26T01:45:47;40.38;;;16.67;;
5900;SDS011;2976;49.764;9.796;2023-01-26T01:48:19;39.17;;;16.90;;
5900;SDS011;2976;49.764;9.796;2023-01-26T01:51:09;30.90;;;14.25;;
5900;SDS011;2976;49.764;9.796;2023-01-26T01:53:40;37.33;;;16.10;;
5900;SDS011;2976;49.764;9.796;2023-01-26T01:56:12;34.87;;;15.40;;
5900;SDS011;2976;49.764;9.796;2023-01-26T01:58:45;35.17;;;16.03;;
5900;SDS011;2976;49.764;9.796;2023-01-26T02:01:12;38.37;;;16.57;;
5900;SDS011;2976;49.764;9.796;2023-01-26T02:03:38;42.40;;;18.03;;
5900;SDS011;2976;49.764;9.796;2023-01-26T02:06:13;37.30;;;16.77;;
5900;SDS011;2976;49.764;9.796;2023-01-26T02:08:52;35.40;;;16.77;;
5900;SDS011;2976;49.764;9.796;2023-01-26T02:11:21;38.50;;;16.27;;
5900;SDS011;2976;49.764;9.796;2023-01-26T02:13:58;41.80;;;17.53;;
5900;SDS011;2976;49.764;9.796;2023-01-26T02:16:26;39.40;;;16.83;;
5900;SDS011;2976;49.764;9.796;2023-01-26T02:18:52;40.57;;;16.67;;
5900;SDS011;2976;49.764;9.796;2023-01-26T02:21:19;29.40;;;14.73;;
5900;SDS011;2976;49.764;9.796;2023-01-26T02:26:26;36.30;;;16.05;;
5900;SDS011;2976;49.764;9.796;2023-01-26T02:28:57;50.47;;;17.67;;
5900;SDS011;2976;49.764;9.796;2023-01-26T02:31:23;36.37;;;15.70;;
5900;SDS011;2976;49.764;9.796;2023-01-26T02:33:50;35.00;;;15.33;;
5900;SDS011;2976;49.764;9.796;2023-01-26T02:36:20;39.20;;;15.63;;
5900;SDS011;2976;49.764;9.796;2023-01-26T02:41:21;36.10;;;14.93;;
5900;SDS011;2976;49.764;9.796;2023-01-26T02:44:07;35.63;;;14.48;;
5900;SDS011;2976;49.764;9.796;2023-01-26T02:46:34;31.40;;;14.70;;
5900;SDS011;2976;49.764;9.796;2023-01-26T02:48:59;33.33;;;15.33;;
5900;SDS011;2976;49.764;9.796;2023-01-26T02:51:44;31.73;;;15.13;;
5900;SDS011;2976;49.764;9.796;2023-01-26T02:54:09;34.60;;;15.17;;
5900;SDS011;2976;49.764;9.796;2023-01-26T02:56:55;32.57;;;13.70;;
5900;SDS011;2976;49.764;9.796;2023-01-26T02:59:20;40.77;;;15.20;;
5900;SDS011;2976;49.764;9.796;2023-01-26T03:01:47;29.53;;;14.20;;
5900;SDS011;2976;49.764;9.796;2023-01-26T03:04:14;31.25;;;14.52;;
5900;SDS011;2976;49.764;9.796;2023-01-26T03:06:40;35.17;;;13.90;;
5900;SDS011;2976;49.764;9.796;2023-01-26T03:09:05;31.23;;;13.83;;
5900;SDS011;2976;49.764;9.796;2023-01-26T03:11:31;31.97;;;14.27;;
5900;SDS011;2976;49.764;9.796;2023-01-26T03:14:06;33.33;;;15.73;;
5900;SDS011;2976;49.764;9.796;2023-01-26T03:16:32;39.88;;;15.55;;
5900;SDS011;2976;49.764;9.796;2023-01-26T03:18:58;36.10;;;15.40;;
5900;SDS011;2976;49.764;9.796;2023-01-26T03:21:29;39.77;;;16.13;;
5900;SDS011;2976;49.764;9.796;2023-01-26T03:24:14;32.65;;;14.85;;
5900;SDS011;2976;49.764;9.796;2023-01-26T03:26:58;26.77;;;12.82;;
5900;SDS011;2976;49.764;9.796;2023-01-26T03:29:43;35.60;;;15.30;;
5900;SDS011;2976;49.764;9.796;2023-01-26T03:32:09;38.37;;;15.97;;
5900;SDS011;2976;49.764;9.796;2023-01-26T03:34:34;30.93;;;15.47;;
5900;SDS011;2976;49.764;9.796;2023-01-26T03:37:00;36.13;;;15.13;;
5900;SDS011;2976;49.764;9.796;2023-01-26T03:39:25;37.20;;;15.50;;
5900;SDS011;2976;49.764;9.796;2023-01-26T03:42:10;34.90;;;15.90;;
5900;SDS011;2976;49.764;9.796;2023-01-26T03:44:54;38.45;;;14.77;;
5900;SDS011;2976;49.764;9.796;2023-01-26T03:47:38;28.25;;;12.73;;
5900;SDS011;2976;49.764;9.796;2023-01-26T03:50:22;39.83;;;13.23;;
5900;SDS011;2976;49.764;9.796;2023-01-26T03:53:15;33.95;;;14.02;;
5900;SDS011;2976;49.764;9.796;2023-01-26T03:56:01;35.60;;;14.27;;
5900;SDS011;2976;49.764;9.796;2023-01-26T03:58:41;27.58;;;14.27;;
5900;SDS011;2976;49.764;9.796;2023-01-26T04:01:11;31.10;;;14.93;;
5900;SDS011;2976;49.764;9.796;2023-01-26T04:03:45;30.10;;;14.27;;
5900;SDS011;2976;49.764;9.796;2023-01-26T04:06:30;32.50;;;14.50;;
5900;SDS011;2976;49.764;9.796;2023-01-26T04:09:14;33.78;;;14.85;;
5900;SDS011;2976;49.764;9.796;2023-01-26T04:11:40;37.73;;;16.70;;
5900;SDS011;2976;49.764;9.796;2023-01-26T04:14:05;48.87;;;15.93;;
5900;SDS011;2976;49.764;9.796;2023-01-26T04:16:51;32.85;;;14.90;;
5900;SDS011;2976;49.764;9.796;2023-01-26T04:19:35;38.05;;;16.63;;
5900;SDS011;2976;49.764;9.796;2023-01-26T04:22:19;33.90;;;15.73;;
5900;SDS011;2976;49.764;9.796;2023-01-26T04:24:45;31.10;;;15.73;;
5900;SDS011;2976;49.764;9.796;2023-01-26T04:27:10;43.27;;;17.40;;
5900;SDS011;2976;49.764;9.796;2023-01-26T04:29:36;38.60;;;16.73;;
5900;SDS011;2976;49.764;9.796;2023-01-26T04:32:01;29.20;;;14.20;;
5900;SDS011;2976;49.764;9.796;2023-01-26T04:34:27;29.73;;;13.43;;
5900;SDS011;2976;49.764;9.796;2023-01-26T04:36:53;37.80;;;14.20;;
5900;SDS011;2976;49.764;9.796;2023-01-26T04:39:18;31.13;;;13.40;;
5900;SDS011;2976;49.764;9.796;2023-01-26T04:41:44;33.13;;;14.03;;
5900;SDS011;2976;49.764;9.796;2023-01-26T04:44:09;35.97;;;14.37;;
5900;SDS011;2976;49.764;9.796;2023-01-26T04:46:35;31.87;;;13.80;;
5900;SDS011;2976;49.764;9.796;2023-01-26T04:49:00;37.97;;;13.80;;
5900;SDS011;2976;49.764;9.796;2023-01-26T04:51:26;34.77;;;15.00;;
5900;SDS011;2976;49.764;9.796;2023-01-26T04:53:52;35.80;;;15.30;;
5900;SDS011;2976;49.764;9.796;2023-01-26T04:56:22;39.80;;;15.87;;
5900;SDS011;2976;49.764;9.796;2023-01-26T04:58:50;36.45;;;15.85;;
5900;SDS011;2976;49.764;9.796;2023-01-26T05:01:16;28.43;;;12.80;;
5900;SDS011;2976;49.764;9.796;2023-01-26T05:03:42;35.43;;;14.60;;
5900;SDS011;2976;49.764;9.796;2023-01-26T05:06:07;28.97;;;12.60;;
5900;SDS011;2976;49.764;9.796;2023-01-26T05:08:33;28.50;;;13.83;;
5900;SDS011;2976;49.764;9.796;2023-01-26T05:11:00;37.30;;;16.02;;
5900;SDS011;2976;49.764;9.796;2023-01-26T05:13:25;35.33;;;15.30;;
5900;SDS011;2976;49.764;9.796;2023-01-26T05:15:51;25.73;;;13.83;;
5900;SDS011;2976;49.764;9.796;2023-01-26T05:18:16;34.20;;;15.37;;
5900;SDS011;2976;49.764;9.796;2023-01-26T05:20:42;39.30;;;16.23;;
5900;SDS011;2976;49.764;9.796;2023-01-26T05:23:07;52.97;;;18.13;;
5900;SDS011;2976;49.764;9.796;2023-01-26T05:25:33;30.77;;;14.87;;
5900;SDS011;2976;49.764;9.796;2023-01-26T05:27:58;37.70;;;15.50;;
5900;SDS011;2976;49.764;9.796;2023-01-26T05:30:24;42.47;;;16.07;;
5900;SDS011;2976;49.764;9.796;2023-01-26T05:32:51;33.77;;;16.00;;
5900;SDS011;2976;49.764;9.796;2023-01-26T05:35:17;29.43;;;14.00;;
5900;SDS011;2976;49.764;9.796;2023-01-26T05:37:42;32.27;;;14.03;;
5900;SDS011;2976;49.764;9.796;2023-01-26T05:40:09;33.05;;;16.05;;
5900;SDS011;2976;49.764;9.796;2023-01-26T05:42:35;37.43;;;16.50;;
5900;SDS011;2976;49.764;9.796;2023-01-26T05:45:01;39.17;;;16.47;;
5900;SDS011;2976;49.764;9.796;2023-01-26T05:47:27;31.20;;;14.80;;
5900;SDS011;2976;49.764;9.796;2023-01-26T05:49:53;33.87;;;13.50;;
5900;SDS011;2976;49.764;9.796;2023-01-26T05:52:19;27.30;;;12.63;;
5900;SDS011;2976;49.764;9.796;2023-01-26T05:54:46;36.28;;;13.70;;
5900;SDS011;2976;49.764;9.796;2023-01-26T05:57:12;32.00;;;12.73;;
5900;SDS011;2976;49.764;9.796;2023-01-26T05:59:38;37.80;;;14.00;;
5900;SDS011;2976;49.764;9.796;2023-01-26T06:02:03;29.53;;;12.63;;
5900;SDS011;2976;49.764;9.796;2023-01-26T06:04:30;32.17;;;14.53;;
5900;SDS011;2976;49.764;9.796;2023-01-26T06:06:56;26.93;;;12.57;;
5900;SDS011;2976;49.764;9.796;2023-01-26T06:09:23;35.25;;;13.18;;
5900;SDS011;2976;49.764;9.796;2023-01-26T06:11:49;31.10;;;13.37;;
5900;SDS011;2976;49.764;9.796;2023-01-26T06:14:15;37.47;;;15.03;;
5900;SDS011;2976;49.764;9.796;2023-01-26T06:16:41;34.70;;;14.07;;
5900;SDS011;2976;49.764;9.796;2023-01-26T06:19:07;30.97;;;12.87;;
5900;SDS011;2976;49.764;9.796;2023-01-26T06:21:34;27.40;;;12.20;;
5900;SDS011;2976;49.764;9.796;2023-01-26T06:24:00;37.17;;;14.55;;
5900;SDS011;2976;49.764;9.796;2023-01-26T06:26:26;36.53;;;14.77;;
5900;SDS011;2976;49.764;9.796;2023-01-26T06:28:52;45.67;;;14.90;;
5900;SDS011;2976;49.764;9.796;2023-01-26T06:31:18;38.43;;;15.07;;
5900;SDS011;2976;49.764;9.796;2023-01-26T06:33:44;46.30;;;15.73;;
5900;SDS011;2976;49.764;9.796;2023-01-26T06:36:10;36.07;;;14.67;;
5900;SDS011;2976;49.764;9.796;2023-01-26T06:38:38;35.03;;;13.60;;
5900;SDS011;2976;49.764;9.796;2023-01-26T06:41:13;38.20;;;15.77;;
5900;SDS011;2976;49.764;9.796;2023-01-26T06:43:42;40.28;;;13.95;;
5900;SDS011;2976;49.764;9.796;2023-01-26T06:46:10;33.15;;;12.23;;
5900;SDS011;2976;49.764;9.796;2023-01-26T06:48:35;31.77;;;13.80;;
5900;SDS011;2976;49.764;9.796;2023-01-26T06:54:07;36.90;;;13.00;;
5900;SDS011;2976;49.764;9.796;2023-01-26T06:56:34;32.50;;;12.52;;
5900;SDS011;2976;49.764;9.796;2023-01-26T06:59:00;37.43;;;13.27;;
5900;SDS011;2976;49.764;9.796;2023-01-26T07:01:26;32.90;;;11.60;;
5900;SDS011;2976;49.764;9.796;2023-01-26T07:03:52;35.92;;;12.57;;
5900;SDS011;2976;49.764;9.796;2023-01-26T07:06:19;33.53;;;12.43;;
5900;SDS011;2976;49.764;9.796;2023-01-26T07:08:45;38.28;;;12.88;;
5900;SDS011;2976;49.764;9.796;2023-01-26T07:11:11;35.37;;;12.60;;
5900;SDS011;2976;49.764;9.796;2023-01-26T07:13:38;28.30;;;12.50;;
5900;SDS011;2976;49.764;9.796;2023-01-26T07:16:05;34.67;;;13.17;;
5900;SDS011;2976;49.764;9.796;2023-01-26T07:18:32;37.33;;;13.70;;
5900;SDS011;2976;49.764;9.796;2023-01-26T07:21:02;34.13;;;12.53;;
5900;SDS011;2976;49.764;9.796;2023-01-26T07:23:28;34.08;;;12.38;;
5900;SDS011;2976;49.764;9.796;2023-01-26T07:25:54;31.07;;;12.33;;
5900;SDS011;2976;49.764;9.796;2023-01-26T07:28:20;38.57;;;15.90;;
5900;SDS011;2976;49.764;9.796;2023-01-26T07:30:46;32.90;;;13.10;;
5900;SDS011;2976;49.764;9.796;2023-01-26T07:33:13;33.80;;;14.48;;
5900;SDS011;2976;49.764;9.796;2023-01-26T07:35:39;40.45;;;13.55;;
5900;SDS011;2976;49.764;9.796;2023-01-26T07:38:04;30.53;;;13.43;;
5900;SDS011;2976;49.764;9.796;2023-01-26T07:40:30;30.27;;;12.30;;
5900;SDS011;2976;49.764;9.796;2023-01-26T07:42:57;32.90;;;13.30;;
5900;SDS011;2976;49.764;9.796;2023-01-26T07:45:24;36.42;;;13.10;;
5900;SDS011;2976;49.764;9.796;2023-01-26T07:47:49;25.90;;;11.27;;
5900;SDS011;2976;49.764;9.796;2023-01-26T07:50:17;35.63;;;13.07;;
5900;SDS011;2976;49.764;9.796;2023-01-26T07:52:44;28.95;;;12.70;;
5900;SDS011;2976;49.764;9.796;2023-01-26T07:55:10;34.60;;;11.40;;
5900;SDS011;2976;49.764;9.796;2023-01-26T07:57:36;30.60;;;11.80;;
5900;SDS011;2976;49.764;9.796;2023-01-26T08:00:02;24.27;;;10.60;;
5900;SDS011;2976;49.764;9.796;2023-01-26T08:02:28;27.00;;;10.90;;
5900;SDS011;2976;49.764;9.796;2023-01-26T08:04:53;27.10;;;11.80;;
5900;SDS011;2976;49.764;9.796;2023-01-26T08:07:19;26.50;;;11.40;;
5900;SDS011;2976;49.764;9.796;2023-01-26T08:09:44;32.60;;;11.70;;
5900;SDS011;2976;49.764;9.796;2023-01-26T08:12:10;32.53;;;12.50;;
5900;SDS011;2976;49.764;9.796;2023-01-26T08:14:35;38.60;;;15.03;;
5900;SDS011;2976;49.764;9.796;2023-01-26T08:17:01;28.87;;;12.77;;
5900;SDS011;2976;49.764;9.796;2023-01-26T08:19:27;32.50;;;11.70;;
5900;SDS011;2976;49.764;9.796;2023-01-26T08:21:52;31.70;;;12.60;;
5900;SDS011;2976;49.764;9.796;2023-01-26T08:24:18;30.40;;;12.03;;
5900;SDS011;2976;49.764;9.796;2023-01-26T08:26:44;31.73;;;12.27;;
5900;SDS011;2976;49.764;9.796;2023-01-26T08:29:09;28.37;;;12.27;;
5900;SDS011;2976;49.764;9.796;2023-01-26T08:31:35;36.23;;;12.00;;
5900;SDS011;2976;49.764;9.796;2023-01-26T08:34:01;32.85;;;12.40;;
5900;SDS011;2976;49.764;9.796;2023-01-26T08:36:28;31.23;;;12.68;;
5900;SDS011;2976;49.764;9.796;2023-01-26T08:38:54;32.00;;;12.70;;
5900;SDS011;2976;49.764;9.796;2023-01-26T08:41:19;26.27;;;11.40;;
5900;SDS011;2976;49.764;9.796;2023-01-26T08:43:45;28.80;;;12.37;;
5900;SDS011;2976;49.764;9.796;2023-01-26T08:46:11;33.08;;;13.18;;
5900;SDS011;2976;49.764;9.796;2023-01-26T08:48:37;27.80;;;13.00;;
5900;SDS011;2976;49.764;9.796;2023-01-26T08:51:03;34.70;;;12.70;;
5900;SDS011;2976;49.764;9.796;2023-01-26T08:53:30;29.45;;;14.27;;
5900;SDS011;2976;49.764;9.796;2023-01-26T08:55:59;28.27;;;11.87;;
5900;SDS011;2976;49.764;9.796;2023-01-26T08:58:25;29.77;;;12.60;;
5900;SDS011;2976;49.764;9.796;2023-01-26T09:00:51;27.00;;;11.73;;
5900;SDS011;2976;49.764;9.796;2023-01-26T09:03:17;29.63;;;12.03;;
5900;SDS011;2976;49.764;9.796;2023-01-26T09:05:43;30.17;;;11.93;;
5900;SDS011;2976;49.764;9.796;2023-01-26T09:08:08;26.27;;;10.80;;
5900;SDS011;2976;49.764;9.796;2023-01-26T09:10:35;26.20;;;11.23;;
5900;SDS011;2976;49.764;9.796;2023-01-26T09:13:02;23.20;;;9.40;;
5900;SDS011;2976;49.764;9.796;2023-01-26T09:15:28;26.90;;;11.23;;
5900;SDS011;2976;49.764;9.796;2023-01-26T09:17:53;29.00;;;12.00;;
5900;SDS011;2976;49.764;9.796;2023-01-26T09:20:19;26.73;;;10.27;;
5900;SDS011;2976;49.764;9.796;2023-01-26T09:22:45;25.80;;;9.70;;
5900;SDS011;2976;49.764;9.796;2023-01-26T09:25:12;22.83;;;9.90;;
5900;SDS011;2976;49.764;9.796;2023-01-26T09:27:38;22.80;;;10.40;;
5900;SDS011;2976;49.764;9.796;2023-01-26T09:30:04;25.55;;;11.25;;
5900;SDS011;2976;49.764;9.796;2023-01-26T09:32:30;23.97;;;9.70;;
5900;SDS011;2976;49.764;9.796;2023-01-26T09:34:56;25.67;;;9.60;;
5900;SDS011;2976;49.764;9.796;2023-01-26T09:37:22;24.83;;;10.00;;
5900;SDS011;2976;49.764;9.796;2023-01-26T09:39:48;26.23;;;10.37;;
5900;SDS011;2976;49.764;9.796;2023-01-26T09:44:54;19.77;;;9.30;;
5900;SDS011;2976;49.764;9.796;2023-01-26T09:47:44;18.42;;;9.35;;
5900;SDS011;2976;49.764;9.796;2023-01-26T09:50:25;19.65;;;8.35;;
5900;SDS011;2976;49.764;9.796;2023-01-26T09:53:56;17.33;;;8.43;;
5900;SDS011;2976;49.764;9.796;2023-01-26T09:56:02;14.65;;;8.48;;
5900;SDS011;2976;49.764;9.796;2023-01-26T09:58:31;14.95;;;7.40;;
5900;SDS011;2976;49.764;9.796;2023-01-26T10:01:01;18.77;;;8.73;;
5900;SDS011;2976;49.764;9.796;2023-01-26T10:06:10;21.08;;;8.82;;
5900;SDS011;2976;49.764;9.796;2023-01-26T10:08:37;13.15;;;7.10;;
5900;SDS011;2976;49.764;9.796;2023-01-26T10:11:06;16.02;;;7.15;;
5900;SDS011;2976;49.764;9.796;2023-01-26T10:13:40;19.35;;;8.02;;
5900;SDS011;2976;49.764;9.796;2023-01-26T10:16:12;12.65;;;6.80;;
5900;SDS011;2976;49.764;9.796;2023-01-26T10:18:41;12.80;;;6.03;;
5900;SDS011;2976;49.764;9.796;2023-01-26T10:21:19;13.63;;;6.30;;
5900;SDS011;2976;49.764;9.796;2023-01-26T10:23:49;13.75;;;6.25;;
5900;SDS011;2976;49.764;9.796;2023-01-26T10:26:20;9.10;;;5.45;;
5900;SDS011;2976;49.764;9.796;2023-01-26T10:28:48;11.85;;;5.60;;
5900;SDS011;2976;49.764;9.796;2023-01-26T10:31:31;11.17;;;6.00;;
5900;SDS011;2976;49.764;9.796;2023-01-26T10:36:34;12.07;;;5.60;;
5900;SDS011;2976;49.764;9.796;2023-01-26T10:39:06;10.80;;;5.10;;
5900;SDS011;2976;49.764;9.796;2023-01-26T10:41:33;8.48;;;5.28;;
5900;SDS011;2976;49.764;9.796;2023-01-26T10:46:40;8.50;;;4.28;;
5900;SDS011;2976;49.764;9.796;2023-01-26T10:51:42;9.30;;;5.80;;
5900;SDS011;2976;49.764;9.796;2023-01-26T10:54:14;10.07;;;5.40;;
5900;SDS011;2976;49.764;9.796;2023-01-26T10:56:53;9.00;;;6.07;;
5900;SDS011;2976;49.764;9.796;2023-01-26T10:59:27;8.37;;;5.63;;
5900;SDS011;2976;49.764;9.796;2023-01-26T11:02:29;10.77;;;4.85;;
5900;SDS011;2976;49.764;9.796;2023-01-26T11:05:01;5.90;;;4.40;;
5900;SDS011;2976;49.764;9.796;2023-01-26T11:13:19;5.50;;;3.53;;
5900;SDS011;2976;49.764;9.796;2023-01-26T11:15:50;8.57;;;4.40;;
5900;SDS011;2976;49.764;9.796;2023-01-26T11:18:31;5.70;;;3.43;;
5900;SDS011;2976;49.764;9.796;2023-01-26T11:23:47;7.20;;;4.43;;
5900;SDS011;2976;49.764;9.796;2023-01-26T11:29:22;4.55;;;3.20;;
5900;SDS011;2976;49.764;9.796;2023-01-26T11:31:55;5.07;;;3.83;;
5900;SDS011;2976;49.764;9.796;2023-01-26T11:48:23;5.23;;;3.40;;
5900;SDS011;2976;49.764;9.796;2023-01-26T11:59:05;5.23;;;3.23;;
5900;SDS011;2976;49.764;9.796;2023-01-26T12:01:41;4.40;;;3.20;;
5900;SDS011;2976;49.764;9.796;2023-01-26T12:04:13;3.77;;;3.27;;
5900;SDS011;2976;49.764;9.796;2023-01-26T12:06:44;4.50;;;3.23;;
5900;SDS011;2976;49.764;9.796;2023-01-26T12:09:13;4.60;;;3.20;;
5900;SDS011;2976;49.764;9.796;2023-01-26T12:12:11;3.77;;;3.10;;
5900;SDS011;2976;49.764;9.796;2023-01-26T12:14:49;2.97;;;2.53;;
5900;SDS011;2976;49.764;9.796;2023-01-26T12:17:17;6.63;;;3.90;;
5900;SDS011;2976;49.764;9.796;2023-01-26T12:22:44;4.60;;;2.60;;
5900;SDS011;2976;49.764;9.796;2023-01-26T12:25:21;4.80;;;3.37;;
5900;SDS011;2976;49.764;9.796;2023-01-26T12:30:49;5.10;;;3.53;;
5900;SDS011;2976;49.764;9.796;2023-01-26T12:33:15;6.47;;;4.40;;
5900;SDS011;2976;49.764;9.796;2023-01-26T12:35:49;6.80;;;3.87;;
5900;SDS011;2976;49.764;9.796;2023-01-26T12:43:52;4.50;;;3.83;;
5900;SDS011;2976;49.764;9.796;2023-01-26T12:46:29;3.90;;;2.73;;
5900;SDS011;2976;49.764;9.796;2023-01-26T12:49:13;5.50;;;2.60;;
5900;SDS011;2976;49.764;9.796;2023-01-26T12:51:48;4.67;;;3.20;;
5900;SDS011;2976;49.764;9.796;2023-01-26T12:57:13;4.57;;;2.57;;
5900;SDS011;2976;49.764;9.796;2023-01-26T12:59:44;4.53;;;2.55;;
5900;SDS011;2976;49.764;9.796;2023-01-26T13:04:47;3.00;;;2.37;;
5900;SDS011;2976;49.764;9.796;2023-01-26T13:15:23;5.30;;;2.67;;
5900;SDS011;2976;49.764;9.796;2023-01-26T13:17:51;4.43;;;3.00;;
5900;SDS011;2976;49.764;9.796;2023-01-26T13:20:22;3.40;;;2.77;;
5900;SDS011;2976;49.764;9.796;2023-01-26T13:28:42;5.33;;;2.73;;
5900;SDS011;2976;49.764;9.796;2023-01-26T13:31:09;4.10;;;3.30;;
5900;SDS011;2976;49.764;9.796;2023-01-26T13:33:36;4.20;;;3.25;;
5900;SDS011;2976;49.764;9.796;2023-01-26T13:36:02;3.67;;;3.20;;
5900;SDS011;2976;49.764;9.796;2023-01-26T13:38:38;6.20;;;3.97;;
5900;SDS011;2976;49.764;9.796;2023-01-26T13:41:12;8.43;;;4.93;;
5900;SDS011;2976;49.764;9.796;2023-01-26T13:43:42;7.03;;;4.28;;
5900;SDS011;2976;49.764;9.796;2023-01-26T13:46:30;6.22;;;4.00;;
5900;SDS011;2976;49.764;9.796;2023-01-26T13:49:02;5.43;;;3.97;;
5900;SDS011;2976;49.764;9.796;2023-01-26T13:51:29;8.07;;;4.63;;
5900;SDS011;2976;49.764;9.796;2023-01-26T13:56:36;5.78;;;4.10;;
5900;SDS011;2976;49.764;9.796;2023-01-26T14:01:30;9.07;;;5.05;;
5900;SDS011;2976;49.764;9.796;2023-01-26T14:04:02;10.00;;;4.87;;
5900;SDS011;2976;49.764;9.796;2023-01-26T14:06:29;8.57;;;4.97;;
5900;SDS011;2976;49.764;9.796;2023-01-26T14:08:56;7.38;;;4.50;;
5900;SDS011;2976;49.764;9.796;2023-01-26T14:11:23;13.32;;;5.20;;
5900;SDS011;2976;49.764;9.796;2023-01-26T14:13:51;5.85;;;4.10;;
5900;SDS011;2976;49.764;9.796;2023-01-26T14:16:30;9.90;;;4.73;;
5900;SDS011;2976;49.764;9.796;2023-01-26T14:19:19;9.53;;;5.00;;
5900;SDS011;2976;49.764;9.796;2023-01-26T14:21:50;9.40;;;5.40;;
5900;SDS011;2976;49.764;9.796;2023-01-26T14:24:23;7.80;;;4.60;;
5900;SDS011;2976;49.764;9.796;2023-01-26T14:27:42;9.73;;;5.55;;
5900;SDS011;2976;49.764;9.796;2023-01-26T14:32:53;12.18;;;5.07;;
5900;SDS011;2976;49.764;9.796;2023-01-26T14:35:25;12.63;;;4.97;;
5900;SDS011;2976;49.764;9.796;2023-01-26T14:38:03;9.05;;;5.80;;
5900;SDS011;2976;49.764;9.796;2023-01-26T14:40:35;8.45;;;5.80;;
5900;SDS011;2976;49.764;9.796;2023-01-26T14:43:12;9.10;;;5.20;;
5900;SDS011;2976;49.764;9.796;2023-01-26T14:45:39;7.10;;;5.40;;
5900;SDS011;2976;49.764;9.796;2023-01-26T14:48:21;7.57;;;4.75;;
5900;SDS011;2976;49.764;9.796;2023-01-26T14:50:53;7.28;;;3.75;;
5900;SDS011;2976;49.764;9.796;2023-01-26T14:53:20;7.30;;;3.70;;
5900;SDS011;2976;49.764;9.796;2023-01-26T14:55:48;9.07;;;5.35;;
5900;SDS011;2976;49.764;9.796;2023-01-26T14:58:28;6.90;;;4.72;;
5900;SDS011;2976;49.764;9.796;2023-01-26T15:00:59;11.27;;;6.38;;
5900;SDS011;2976;49.764;9.796;2023-01-26T15:03:31;7.03;;;4.43;;
5900;SDS011;2976;49.764;9.796;2023-01-26T15:06:02;9.07;;;5.35;;
5900;SDS011;2976;49.764;9.796;2023-01-26T15:08:54;10.23;;;5.25;;
5900;SDS011;2976;49.764;9.796;2023-01-26T15:11:24;8.80;;;4.80;;
5900;SDS011;2976;49.764;9.796;2023-01-26T15:14:29;9.35;;;5.05;;
5900;SDS011;2976;49.764;9.796;2023-01-26T15:17:01;7.75;;;4.75;;
5900;SDS011;2976;49.764;9.796;2023-01-26T15:19:30;8.48;;;4.43;;
5900;SDS011;2976;49.764;9.796;2023-01-26T15:22:02;8.25;;;5.35;;
5900;SDS011;2976;49.764;9.796;2023-01-26T15:24:28;8.60;;;5.27;;
5900;SDS011;2976;49.764;9.796;2023-01-26T15:26:57;10.73;;;6.27;;
5900;SDS011;2976;49.764;9.796;2023-01-26T15:29:30;9.30;;;5.63;;
5900;SDS011;2976;49.764;9.796;2023-01-26T15:31:57;7.85;;;4.93;;
5900;SDS011;2976;49.764;9.796;2023-01-26T15:34:40;10.77;;;5.60;;
5900;SDS011;2976;49.764;9.796;2023-01-26T15:37:26;8.93;;;5.65;;
5900;SDS011;2976;49.764;9.796;2023-01-26T15:39:53;11.00;;;6.43;;
5900;SDS011;2976;49.764;9.796;2023-01-26T15:42:25;14.87;;;5.70;;
5900;SDS011;2976;49.764;9.796;2023-01-26T15:44:54;11.20;;;6.88;;
5900;SDS011;2976;49.764;9.796;2023-01-26T15:47:19;12.50;;;6.33;;
5900;SDS011;2976;49.764;9.796;2023-01-26T15:49:45;7.87;;;5.67;;
5900;SDS011;2976;49.764;9.796;2023-01-26T15:52:11;9.83;;;5.40;;
5900;SDS011;2976;49.764;9.796;2023-01-26T15:54:38;9.85;;;6.00;;
5900;SDS011;2976;49.764;9.796;2023-01-26T15:57:04;8.47;;;6.10;;
5900;SDS011;2976;49.764;9.796;2023-01-26T15:59:30;10.27;;;5.93;;
5900;SDS011;2976;49.764;9.796;2023-01-26T16:01:55;8.90;;;5.93;;
5900;SDS011;2976;49.764;9.796;2023-01-26T16:04:21;6.57;;;4.97;;
5900;SDS011;2976;49.764;9.796;2023-01-26T16:06:49;7.72;;;5.20;;
5900;SDS011;2976;49.764;9.796;2023-01-26T16:09:14;6.30;;;4.50;;
5900;SDS011;2976;49.764;9.796;2023-01-26T16:11:42;13.40;;;6.20;;
5900;SDS011;2976;49.764;9.796;2023-01-26T16:14:12;8.07;;;5.50;;
5900;SDS011;2976;49.764;9.796;2023-01-26T16:16:38;8.97;;;5.50;;
5900;SDS011;2976;49.764;9.796;2023-01-26T16:19:03;8.20;;;4.70;;
5900;SDS011;2976;49.764;9.796;2023-01-26T16:21:29;12.33;;;6.07;;
5900;SDS011;2976;49.764;9.796;2023-01-26T16:23:59;8.95;;;4.75;;
5900;SDS011;2976;49.764;9.796;2023-01-26T16:26:25;13.80;;;5.80;;
5900;SDS011;2976;49.764;9.796;2023-01-26T16:28:51;10.13;;;4.85;;
5900;SDS011;2976;49.764;9.796;2023-01-26T16:31:19;8.03;;;5.77;;
5900;SDS011;2976;49.764;9.796;2023-01-26T16:33:47;7.30;;;4.60;;
5900;SDS011;2976;49.764;9.796;2023-01-26T16:36:13;7.75;;;5.10;;
5900;SDS011;2976;49.764;9.796;2023-01-26T16:38:40;11.68;;;5.82;;
5900;SDS011;2976;49.764;9.796;2023-01-26T16:41:10;8.30;;;4.57;;
5900;SDS011;2976;49.764;9.796;2023-01-26T16:43:57;9.00;;;5.32;;